sensor_id;sensor_type;location;lat;lon;timestamp;P1;durP1;ratioP1;P2;durP2;ratioP2
67941;SDS011;54731;42.600;23.476;2023-06-14T00:01:45;22.35;;;13.90;;
67941;SDS011;54731;42.600;23.476;2023-06-14T00:04:14;23.97;;;14.27;;
67941;SDS011;54731;42.600;23.476;2023-06-14T00:06:39;26.48;;;14.98;;
67941;SDS011;54731;42.600;23.476;2023-06-14T00:09:05;26.07;;;14.60;;
67941;SDS011;54731;42.600;23.476;2023-06-14T00:11:30;26.80;;;15.73;;
67941;SDS011;54731;42.600;23.476;2023-06-14T00:13:56;22.75;;;13.07;;
67941;SDS011;54731;42.600;23.476;2023-06-14T00:16:21;22.50;;;14.27;;
67941;SDS011;54731;42.600;23.476;2023-06-14T00:18:47;21.67;;;13.13;;
67941;SDS011;54731;42.600;23.476;2023-06-14T00:21:12;22.63;;;13.40;;
67941;SDS011;54731;42.600;23.476;2023-06-14T00:23:37;19.80;;;12.90;;
67941;SDS011;54731;42.600;23.476;2023-06-14T00:26:03;21.43;;;13.30;;
67941;SDS011;54731;42.600;23.476;2023-06-14T00:28:28;19.88;;;12.05;;
67941;SDS011;54731;42.600;23.476;2023-06-14T00:30:54;21.40;;;12.47;;
67941;SDS011;54731;42.600;23.476;2023-06-14T00:33:19;19.70;;;13.03;;
67941;SDS011;54731;42.600;23.476;2023-06-14T00:35:44;22.97;;;12.60;;
67941;SDS011;54731;42.600;23.476;2023-06-14T00:38:10;21.07;;;12.53;;
67941;SDS011;54731;42.600;23.476;2023-06-14T00:40:35;20.00;;;11.97;;
67941;SDS011;54731;42.600;23.476;2023-06-14T00:43:00;19.73;;;12.55;;
67941;SDS011;54731;42.600;23.476;2023-06-14T00:45:26;23.40;;;12.47;;
67941;SDS011;54731;42.600;23.476;2023-06-14T00:47:51;20.90;;;11.57;;
67941;SDS011;54731;42.600;23.476;2023-06-14T00:50:17;18.95;;;11.15;;
67941;SDS011;54731;42.600;23.476;2023-06-14T00:52:45;18.63;;;11.27;;
67941;SDS011;54731;42.600;23.476;2023-06-14T00:55:10;17.52;;;10.70;;
67941;SDS011;54731;42.600;23.476;2023-06-14T00:57:36;18.20;;;10.80;;
67941;SDS011;54731;42.600;23.476;2023-06-14T01:00:01;15.87;;;9.57;;
67941;SDS011;54731;42.600;23.476;2023-06-14T01:02:26;13.40;;;9.27;;
67941;SDS011;54731;42.600;23.476;2023-06-14T01:04:52;15.90;;;9.93;;
67941;SDS011;54731;42.600;23.476;2023-06-14T01:07:23;14.90;;;10.18;;
67941;SDS011;54731;42.600;23.476;2023-06-14T01:15:17;13.98;;;8.45;;
67941;SDS011;54731;42.600;23.476;2023-06-14T01:17:45;13.47;;;8.93;;
67941;SDS011;54731;42.600;23.476;2023-06-14T01:20:14;13.18;;;9.20;;
67941;SDS011;54731;42.600;23.476;2023-06-14T01:22:48;13.57;;;8.88;;
67941;SDS011;54731;42.600;23.476;2023-06-14T01:25:17;14.10;;;8.85;;
67941;SDS011;54731;42.600;23.476;2023-06-14T01:27:43;14.85;;;7.75;;
67941;SDS011;54731;42.600;23.476;2023-06-14T01:30:09;14.60;;;8.97;;
67941;SDS011;54731;42.600;23.476;2023-06-14T01:32:34;14.00;;;8.60;;
67941;SDS011;54731;42.600;23.476;2023-06-14T01:35:00;12.60;;;8.30;;
67941;SDS011;54731;42.600;23.476;2023-06-14T01:37:26;16.60;;;8.23;;
67941;SDS011;54731;42.600;23.476;2023-06-14T01:39:51;13.48;;;9.13;;
67941;SDS011;54731;42.600;23.476;2023-06-14T01:42:17;11.53;;;8.00;;
67941;SDS011;54731;42.600;23.476;2023-06-14T01:44:43;16.20;;;8.45;;
67941;SDS011;54731;42.600;23.476;2023-06-14T01:47:09;14.93;;;8.65;;
67941;SDS011;54731;42.600;23.476;2023-06-14T01:49:35;14.80;;;8.27;;
67941;SDS011;54731;42.600;23.476;2023-06-14T01:52:00;9.80;;;7.10;;
67941;SDS011;54731;42.600;23.476;2023-06-14T01:54:26;11.73;;;7.10;;
67941;SDS011;54731;42.600;23.476;2023-06-14T01:56:51;11.40;;;6.57;;
67941;SDS011;54731;42.600;23.476;2023-06-14T01:59:16;9.00;;;6.47;;
67941;SDS011;54731;42.600;23.476;2023-06-14T02:01:41;9.90;;;6.37;;
67941;SDS011;54731;42.600;23.476;2023-06-14T02:04:07;10.10;;;6.77;;
67941;SDS011;54731;42.600;23.476;2023-06-14T02:06:32;9.63;;;6.53;;
67941;SDS011;54731;42.600;23.476;2023-06-14T02:08:57;10.43;;;6.37;;
67941;SDS011;54731;42.600;23.476;2023-06-14T02:11:23;11.10;;;6.97;;
67941;SDS011;54731;42.600;23.476;2023-06-14T02:13:48;10.47;;;7.00;;
67941;SDS011;54731;42.600;23.476;2023-06-14T02:16:13;10.35;;;7.28;;
67941;SDS011;54731;42.600;23.476;2023-06-14T02:18:38;12.60;;;8.10;;
67941;SDS011;54731;42.600;23.476;2023-06-14T02:21:04;12.37;;;7.90;;
67941;SDS011;54731;42.600;23.476;2023-06-14T02:23:29;12.23;;;8.37;;
67941;SDS011;54731;42.600;23.476;2023-06-14T02:25:54;11.53;;;8.13;;
67941;SDS011;54731;42.600;23.476;2023-06-14T02:28:20;12.77;;;8.30;;
67941;SDS011;54731;42.600;23.476;2023-06-14T02:30:45;12.23;;;8.23;;
67941;SDS011;54731;42.600;23.476;2023-06-14T02:33:10;14.97;;;8.87;;
67941;SDS011;54731;42.600;23.476;2023-06-14T02:35:36;14.20;;;8.50;;
67941;SDS011;54731;42.600;23.476;2023-06-14T02:38:01;13.00;;;8.37;;
67941;SDS011;54731;42.600;23.476;2023-06-14T02:40:26;13.15;;;8.65;;
67941;SDS011;54731;42.600;23.476;2023-06-14T02:42:51;12.60;;;8.87;;
67941;SDS011;54731;42.600;23.476;2023-06-14T02:45:17;9.40;;;6.17;;
67941;SDS011;54731;42.600;23.476;2023-06-14T02:47:42;7.97;;;6.00;;
67941;SDS011;54731;42.600;23.476;2023-06-14T02:50:08;11.37;;;8.10;;
67941;SDS011;54731;42.600;23.476;2023-06-14T02:52:33;14.73;;;8.30;;
67941;SDS011;54731;42.600;23.476;2023-06-14T02:54:59;13.60;;;7.80;;
67941;SDS011;54731;42.600;23.476;2023-06-14T02:57:24;12.03;;;8.63;;
67941;SDS011;54731;42.600;23.476;2023-06-14T02:59:49;14.43;;;7.70;;
67941;SDS011;54731;42.600;23.476;2023-06-14T03:02:15;11.37;;;7.87;;
67941;SDS011;54731;42.600;23.476;2023-06-14T03:04:40;10.07;;;7.67;;
67941;SDS011;54731;42.600;23.476;2023-06-14T03:07:05;12.43;;;7.57;;
67941;SDS011;54731;42.600;23.476;2023-06-14T03:09:30;9.38;;;6.20;;
67941;SDS011;54731;42.600;23.476;2023-06-14T03:11:56;10.33;;;6.60;;
67941;SDS011;54731;42.600;23.476;2023-06-14T03:14:21;9.57;;;6.47;;
67941;SDS011;54731;42.600;23.476;2023-06-14T03:16:46;13.73;;;8.17;;
67941;SDS011;54731;42.600;23.476;2023-06-14T03:19:12;14.90;;;8.87;;
67941;SDS011;54731;42.600;23.476;2023-06-14T03:21:37;14.57;;;8.87;;
67941;SDS011;54731;42.600;23.476;2023-06-14T03:24:02;15.43;;;9.60;;
67941;SDS011;54731;42.600;23.476;2023-06-14T03:26:28;13.87;;;9.07;;
67941;SDS011;54731;42.600;23.476;2023-06-14T03:28:53;11.38;;;8.32;;
67941;SDS011;54731;42.600;23.476;2023-06-14T03:31:18;13.48;;;8.90;;
67941;SDS011;54731;42.600;23.476;2023-06-14T03:33:43;11.27;;;8.43;;
67941;SDS011;54731;42.600;23.476;2023-06-14T03:36:09;11.33;;;7.83;;
67941;SDS011;54731;42.600;23.476;2023-06-14T03:38:34;12.90;;;7.87;;
67941;SDS011;54731;42.600;23.476;2023-06-14T03:40:59;13.00;;;7.77;;
67941;SDS011;54731;42.600;23.476;2023-06-14T03:43:25;13.93;;;7.73;;
67941;SDS011;54731;42.600;23.476;2023-06-14T03:45:50;10.53;;;7.07;;
67941;SDS011;54731;42.600;23.476;2023-06-14T03:48:16;13.80;;;7.93;;
67941;SDS011;54731;42.600;23.476;2023-06-14T03:50:41;13.77;;;8.63;;
67941;SDS011;54731;42.600;23.476;2023-06-14T03:53:06;17.90;;;10.23;;
67941;SDS011;54731;42.600;23.476;2023-06-14T03:55:32;16.60;;;10.20;;
67941;SDS011;54731;42.600;23.476;2023-06-14T03:57:57;19.57;;;10.13;;
67941;SDS011;54731;42.600;23.476;2023-06-14T04:00:22;19.77;;;11.77;;
67941;SDS011;54731;42.600;23.476;2023-06-14T04:02:48;18.95;;;11.70;;
67941;SDS011;54731;42.600;23.476;2023-06-14T04:05:13;16.40;;;11.23;;
67941;SDS011;54731;42.600;23.476;2023-06-14T04:07:39;18.67;;;11.73;;
67941;SDS011;54731;42.600;23.476;2023-06-14T04:10:04;22.43;;;12.90;;
67941;SDS011;54731;42.600;23.476;2023-06-14T04:12:30;20.27;;;12.15;;
67941;SDS011;54731;42.600;23.476;2023-06-14T04:14:56;23.27;;;13.53;;
67941;SDS011;54731;42.600;23.476;2023-06-14T04:17:21;25.90;;;14.60;;
67941;SDS011;54731;42.600;23.476;2023-06-14T04:19:46;30.70;;;15.47;;
67941;SDS011;54731;42.600;23.476;2023-06-14T04:22:11;23.77;;;14.77;;
67941;SDS011;54731;42.600;23.476;2023-06-14T04:24:37;25.47;;;14.53;;
67941;SDS011;54731;42.600;23.476;2023-06-14T04:27:02;25.73;;;14.90;;
67941;SDS011;54731;42.600;23.476;2023-06-14T04:29:28;25.30;;;14.80;;
67941;SDS011;54731;42.600;23.476;2023-06-14T04:31:53;27.27;;;15.23;;
67941;SDS011;54731;42.600;23.476;2023-06-14T04:34:19;21.02;;;13.88;;
67941;SDS011;54731;42.600;23.476;2023-06-14T04:36:44;22.63;;;12.90;;
67941;SDS011;54731;42.600;23.476;2023-06-14T04:39:10;21.43;;;13.07;;
67941;SDS011;54731;42.600;23.476;2023-06-14T04:41:35;20.40;;;13.03;;
67941;SDS011;54731;42.600;23.476;2023-06-14T04:44:00;20.60;;;12.27;;
67941;SDS011;54731;42.600;23.476;2023-06-14T04:46:26;16.45;;;11.75;;
67941;SDS011;54731;42.600;23.476;2023-06-14T04:48:52;18.57;;;12.50;;
67941;SDS011;54731;42.600;23.476;2023-06-14T04:51:18;17.92;;;11.77;;
67941;SDS011;54731;42.600;23.476;2023-06-14T04:53:43;20.97;;;12.43;;
67941;SDS011;54731;42.600;23.476;2023-06-14T04:56:08;18.67;;;12.10;;
67941;SDS011;54731;42.600;23.476;2023-06-14T04:58:33;20.03;;;12.00;;
67941;SDS011;54731;42.600;23.476;2023-06-14T05:00:59;21.50;;;12.00;;
67941;SDS011;54731;42.600;23.476;2023-06-14T05:03:25;20.70;;;12.30;;
67941;SDS011;54731;42.600;23.476;2023-06-14T05:05:50;23.83;;;13.13;;
67941;SDS011;54731;42.600;23.476;2023-06-14T05:08:16;22.90;;;13.07;;
67941;SDS011;54731;42.600;23.476;2023-06-14T05:10:41;19.73;;;13.25;;
67941;SDS011;54731;42.600;23.476;2023-06-14T05:13:06;18.10;;;12.63;;
67941;SDS011;54731;42.600;23.476;2023-06-14T05:15:32;17.40;;;12.10;;
67941;SDS011;54731;42.600;23.476;2023-06-14T05:17:57;18.40;;;11.93;;
67941;SDS011;54731;42.600;23.476;2023-06-14T05:20:23;15.37;;;11.33;;
67941;SDS011;54731;42.600;23.476;2023-06-14T05:22:49;19.90;;;13.10;;
67941;SDS011;54731;42.600;23.476;2023-06-14T05:25:15;19.70;;;11.87;;
67941;SDS011;54731;42.600;23.476;2023-06-14T05:27:40;21.00;;;12.83;;
67941;SDS011;54731;42.600;23.476;2023-06-14T05:30:05;17.20;;;11.73;;
67941;SDS011;54731;42.600;23.476;2023-06-14T05:32:31;18.88;;;11.95;;
67941;SDS011;54731;42.600;23.476;2023-06-14T05:34:56;17.87;;;11.73;;
67941;SDS011;54731;42.600;23.476;2023-06-14T05:37:22;19.37;;;12.90;;
67941;SDS011;54731;42.600;23.476;2023-06-14T05:39:47;18.13;;;12.53;;
67941;SDS011;54731;42.600;23.476;2023-06-14T05:42:12;29.45;;;15.88;;
67941;SDS011;54731;42.600;23.476;2023-06-14T05:44:38;19.80;;;12.83;;
67941;SDS011;54731;42.600;23.476;2023-06-14T05:47:03;25.00;;;15.57;;
67941;SDS011;54731;42.600;23.476;2023-06-14T05:49:28;31.93;;;15.80;;
67941;SDS011;54731;42.600;23.476;2023-06-14T05:51:54;27.17;;;16.40;;
67941;SDS011;54731;42.600;23.476;2023-06-14T05:54:19;20.67;;;13.77;;
67941;SDS011;54731;42.600;23.476;2023-06-14T05:56:44;23.63;;;14.93;;
67941;SDS011;54731;42.600;23.476;2023-06-14T05:59:10;26.73;;;15.35;;
67941;SDS011;54731;42.600;23.476;2023-06-14T06:01:35;26.30;;;14.93;;
67941;SDS011;54731;42.600;23.476;2023-06-14T06:04:00;22.57;;;15.70;;
67941;SDS011;54731;42.600;23.476;2023-06-14T06:06:25;19.60;;;14.10;;
67941;SDS011;54731;42.600;23.476;2023-06-14T06:08:51;19.33;;;13.63;;
67941;SDS011;54731;42.600;23.476;2023-06-14T06:11:16;20.53;;;15.23;;
67941;SDS011;54731;42.600;23.476;2023-06-14T06:13:41;22.00;;;15.67;;
67941;SDS011;54731;42.600;23.476;2023-06-14T06:16:06;20.67;;;14.67;;
67941;SDS011;54731;42.600;23.476;2023-06-14T06:18:32;22.90;;;14.38;;
67941;SDS011;54731;42.600;23.476;2023-06-14T06:20:57;20.75;;;14.60;;
67941;SDS011;54731;42.600;23.476;2023-06-14T06:23:23;20.67;;;14.50;;
67941;SDS011;54731;42.600;23.476;2023-06-14T06:25:48;19.70;;;15.33;;
67941;SDS011;54731;42.600;23.476;2023-06-14T06:28:13;19.53;;;14.20;;
67941;SDS011;54731;42.600;23.476;2023-06-14T06:30:39;19.67;;;14.23;;
67941;SDS011;54731;42.600;23.476;2023-06-14T06:33:04;20.27;;;14.70;;
67941;SDS011;54731;42.600;23.476;2023-06-14T06:35:29;20.57;;;14.00;;
67941;SDS011;54731;42.600;23.476;2023-06-14T06:37:54;19.80;;;14.30;;
67941;SDS011;54731;42.600;23.476;2023-06-14T06:40:20;21.73;;;14.93;;
67941;SDS011;54731;42.600;23.476;2023-06-14T06:42:45;18.95;;;14.13;;
67941;SDS011;54731;42.600;23.476;2023-06-14T06:45:10;23.13;;;15.23;;
67941;SDS011;54731;42.600;23.476;2023-06-14T06:47:36;23.10;;;16.30;;
67941;SDS011;54731;42.600;23.476;2023-06-14T06:50:01;24.50;;;16.73;;
67941;SDS011;54731;42.600;23.476;2023-06-14T06:52:26;24.93;;;15.30;;
67941;SDS011;54731;42.600;23.476;2023-06-14T06:54:52;24.73;;;16.37;;
67941;SDS011;54731;42.600;23.476;2023-06-14T06:57:17;25.90;;;15.77;;
67941;SDS011;54731;42.600;23.476;2023-06-14T06:59:42;24.67;;;15.87;;
67941;SDS011;54731;42.600;23.476;2023-06-14T07:02:08;22.30;;;15.20;;
67941;SDS011;54731;42.600;23.476;2023-06-14T07:04:33;21.17;;;14.13;;
67941;SDS011;54731;42.600;23.476;2023-06-14T07:06:58;18.37;;;13.67;;
67941;SDS011;54731;42.600;23.476;2023-06-14T07:09:23;21.70;;;15.80;;
67941;SDS011;54731;42.600;23.476;2023-06-14T07:11:49;23.07;;;16.30;;
67941;SDS011;54731;42.600;23.476;2023-06-14T07:14:14;24.20;;;15.73;;
67941;SDS011;54731;42.600;23.476;2023-06-14T07:16:39;23.33;;;16.37;;
67941;SDS011;54731;42.600;23.476;2023-06-14T07:19:05;20.60;;;14.30;;
67941;SDS011;54731;42.600;23.476;2023-06-14T07:21:30;19.57;;;13.67;;
67941;SDS011;54731;42.600;23.476;2023-06-14T07:23:56;23.02;;;14.93;;
67941;SDS011;54731;42.600;23.476;2023-06-14T07:26:21;21.20;;;14.77;;
67941;SDS011;54731;42.600;23.476;2023-06-14T07:28:47;23.48;;;14.85;;
67941;SDS011;54731;42.600;23.476;2023-06-14T07:31:13;19.23;;;13.77;;
67941;SDS011;54731;42.600;23.476;2023-06-14T07:33:40;23.27;;;16.05;;
67941;SDS011;54731;42.600;23.476;2023-06-14T07:36:05;20.60;;;14.35;;
67941;SDS011;54731;42.600;23.476;2023-06-14T07:38:31;18.73;;;14.20;;
67941;SDS011;54731;42.600;23.476;2023-06-14T07:40:56;25.50;;;15.80;;
67941;SDS011;54731;42.600;23.476;2023-06-14T07:43:21;21.20;;;14.30;;
67941;SDS011;54731;42.600;23.476;2023-06-14T07:45:46;21.03;;;15.20;;
67941;SDS011;54731;42.600;23.476;2023-06-14T07:48:12;25.00;;;15.32;;
67941;SDS011;54731;42.600;23.476;2023-06-14T07:50:37;21.13;;;14.37;;
67941;SDS011;54731;42.600;23.476;2023-06-14T07:53:02;20.53;;;15.77;;
67941;SDS011;54731;42.600;23.476;2023-06-14T07:55:28;22.27;;;15.30;;
67941;SDS011;54731;42.600;23.476;2023-06-14T07:57:53;19.70;;;15.20;;
67941;SDS011;54731;42.600;23.476;2023-06-14T08:00:19;22.23;;;15.20;;
67941;SDS011;54731;42.600;23.476;2023-06-14T08:02:44;18.73;;;14.55;;
67941;SDS011;54731;42.600;23.476;2023-06-14T08:05:10;18.27;;;14.20;;
67941;SDS011;54731;42.600;23.476;2023-06-14T08:07:35;17.63;;;14.27;;
67941;SDS011;54731;42.600;23.476;2023-06-14T08:10:01;17.10;;;13.15;;
67941;SDS011;54731;42.600;23.476;2023-06-14T08:12:26;25.03;;;12.77;;
67941;SDS011;54731;42.600;23.476;2023-06-14T08:14:51;18.00;;;14.27;;
67941;SDS011;54731;42.600;23.476;2023-06-14T08:17:16;23.03;;;13.83;;
67941;SDS011;54731;42.600;23.476;2023-06-14T08:19:42;18.23;;;13.60;;
67941;SDS011;54731;42.600;23.476;2023-06-14T08:22:07;18.53;;;13.53;;
67941;SDS011;54731;42.600;23.476;2023-06-14T08:24:32;17.27;;;13.33;;
67941;SDS011;54731;42.600;23.476;2023-06-14T08:26:58;21.97;;;13.20;;
67941;SDS011;54731;42.600;23.476;2023-06-14T08:29:23;18.23;;;12.97;;
67941;SDS011;54731;42.600;23.476;2023-06-14T08:31:48;20.43;;;13.13;;
67941;SDS011;54731;42.600;23.476;2023-06-14T08:34:13;17.10;;;12.23;;
67941;SDS011;54731;42.600;23.476;2023-06-14T08:36:39;15.40;;;11.63;;
67941;SDS011;54731;42.600;23.476;2023-06-14T08:39:07;15.53;;;12.17;;
67941;SDS011;54731;42.600;23.476;2023-06-14T08:41:34;13.65;;;10.30;;
67941;SDS011;54731;42.600;23.476;2023-06-14T08:44:00;18.40;;;11.20;;
67941;SDS011;54731;42.600;23.476;2023-06-14T08:46:26;13.70;;;10.90;;
67941;SDS011;54731;42.600;23.476;2023-06-14T08:48:51;10.65;;;8.82;;
67941;SDS011;54731;42.600;23.476;2023-06-14T08:51:18;11.57;;;9.73;;
67941;SDS011;54731;42.600;23.476;2023-06-14T08:53:44;11.30;;;9.50;;
67941;SDS011;54731;42.600;23.476;2023-06-14T08:56:09;12.82;;;9.63;;
67941;SDS011;54731;42.600;23.476;2023-06-14T08:58:35;12.60;;;10.00;;
67941;SDS011;54731;42.600;23.476;2023-06-14T09:01:01;10.07;;;8.20;;
67941;SDS011;54731;42.600;23.476;2023-06-14T09:03:26;13.07;;;9.75;;
67941;SDS011;54731;42.600;23.476;2023-06-14T09:05:52;13.87;;;10.67;;
67941;SDS011;54731;42.600;23.476;2023-06-14T09:08:17;13.83;;;8.60;;
67941;SDS011;54731;42.600;23.476;2023-06-14T09:10:42;11.60;;;9.00;;
67941;SDS011;54731;42.600;23.476;2023-06-14T09:13:09;15.98;;;9.57;;
67941;SDS011;54731;42.600;23.476;2023-06-14T09:15:34;12.90;;;9.60;;
67941;SDS011;54731;42.600;23.476;2023-06-14T09:18:03;11.80;;;9.10;;
67941;SDS011;54731;42.600;23.476;2023-06-14T09:20:29;11.93;;;8.18;;
67941;SDS011;54731;42.600;23.476;2023-06-14T09:22:55;10.80;;;8.90;;
67941;SDS011;54731;42.600;23.476;2023-06-14T09:25:20;10.03;;;8.80;;
67941;SDS011;54731;42.600;23.476;2023-06-14T09:27:48;11.52;;;8.95;;
67941;SDS011;54731;42.600;23.476;2023-06-14T09:30:13;12.10;;;7.37;;
67941;SDS011;54731;42.600;23.476;2023-06-14T09:32:39;10.67;;;8.00;;
67941;SDS011;54731;42.600;23.476;2023-06-14T09:35:07;11.63;;;8.73;;
67941;SDS011;54731;42.600;23.476;2023-06-14T09:37:34;8.80;;;7.68;;
67941;SDS011;54731;42.600;23.476;2023-06-14T09:39:59;10.87;;;8.33;;
67941;SDS011;54731;42.600;23.476;2023-06-14T09:42:25;12.95;;;7.90;;
67941;SDS011;54731;42.600;23.476;2023-06-14T09:44:52;9.63;;;6.90;;
67941;SDS011;54731;42.600;23.476;2023-06-14T09:47:18;8.90;;;7.80;;
67941;SDS011;54731;42.600;23.476;2023-06-14T09:49:44;8.93;;;7.50;;
67941;SDS011;54731;42.600;23.476;2023-06-14T09:52:17;10.03;;;8.00;;
67941;SDS011;54731;42.600;23.476;2023-06-14T09:54:43;10.15;;;7.00;;
67941;SDS011;54731;42.600;23.476;2023-06-14T09:57:10;9.27;;;7.75;;
67941;SDS011;54731;42.600;23.476;2023-06-14T09:59:36;16.13;;;8.82;;
67941;SDS011;54731;42.600;23.476;2023-06-14T10:02:05;8.98;;;7.75;;
67941;SDS011;54731;42.600;23.476;2023-06-14T10:04:41;10.60;;;7.93;;
67941;SDS011;54731;42.600;23.476;2023-06-14T10:07:15;11.73;;;9.40;;
67941;SDS011;54731;42.600;23.476;2023-06-14T10:09:44;8.32;;;7.45;;
67941;SDS011;54731;42.600;23.476;2023-06-14T10:12:11;7.50;;;6.68;;
67941;SDS011;54731;42.600;23.476;2023-06-14T10:14:37;9.13;;;7.30;;
67941;SDS011;54731;42.600;23.476;2023-06-14T10:17:04;11.07;;;6.80;;
67941;SDS011;54731;42.600;23.476;2023-06-14T10:19:34;9.40;;;7.90;;
67941;SDS011;54731;42.600;23.476;2023-06-14T10:24:55;9.07;;;7.00;;
67941;SDS011;54731;42.600;23.476;2023-06-14T10:27:21;8.30;;;6.68;;
67941;SDS011;54731;42.600;23.476;2023-06-14T10:32:17;8.88;;;6.80;;
67941;SDS011;54731;42.600;23.476;2023-06-14T10:34:43;8.30;;;6.30;;
67941;SDS011;54731;42.600;23.476;2023-06-14T10:37:12;7.43;;;6.13;;
67941;SDS011;54731;42.600;23.476;2023-06-14T10:39:42;8.05;;;7.10;;
67941;SDS011;54731;42.600;23.476;2023-06-14T10:42:08;8.20;;;6.77;;
67941;SDS011;54731;42.600;23.476;2023-06-14T10:44:38;9.73;;;6.70;;
67941;SDS011;54731;42.600;23.476;2023-06-14T10:47:06;8.63;;;6.65;;
67941;SDS011;54731;42.600;23.476;2023-06-14T10:49:36;8.63;;;6.80;;
67941;SDS011;54731;42.600;23.476;2023-06-14T10:52:07;12.30;;;7.30;;
67941;SDS011;54731;42.600;23.476;2023-06-14T10:54:54;8.67;;;6.33;;
67941;SDS011;54731;42.600;23.476;2023-06-14T10:57:26;7.60;;;6.18;;
67941;SDS011;54731;42.600;23.476;2023-06-14T10:59:51;7.73;;;6.23;;
67941;SDS011;54731;42.600;23.476;2023-06-14T11:04:48;11.15;;;7.00;;
67941;SDS011;54731;42.600;23.476;2023-06-14T11:12:48;7.75;;;6.35;;
67941;SDS011;54731;42.600;23.476;2023-06-14T11:15:14;7.60;;;5.73;;
67941;SDS011;54731;42.600;23.476;2023-06-14T11:17:39;6.72;;;6.10;;
67941;SDS011;54731;42.600;23.476;2023-06-14T11:20:14;8.07;;;6.03;;
67941;SDS011;54731;42.600;23.476;2023-06-14T11:22:43;7.18;;;6.03;;
67941;SDS011;54731;42.600;23.476;2023-06-14T11:25:09;7.05;;;5.30;;
67941;SDS011;54731;42.600;23.476;2023-06-14T11:27:34;6.65;;;6.05;;
67941;SDS011;54731;42.600;23.476;2023-06-14T11:30:00;6.70;;;5.50;;
67941;SDS011;54731;42.600;23.476;2023-06-14T11:32:25;7.23;;;5.50;;
67941;SDS011;54731;42.600;23.476;2023-06-14T11:34:50;7.70;;;5.10;;
67941;SDS011;54731;42.600;23.476;2023-06-14T11:37:16;5.60;;;4.90;;
67941;SDS011;54731;42.600;23.476;2023-06-14T11:39:44;7.10;;;5.67;;
67941;SDS011;54731;42.600;23.476;2023-06-14T11:42:13;5.25;;;4.75;;
67941;SDS011;54731;42.600;23.476;2023-06-14T11:44:39;5.43;;;4.93;;
67941;SDS011;54731;42.600;23.476;2023-06-14T11:47:05;6.43;;;5.70;;
67941;SDS011;54731;42.600;23.476;2023-06-14T11:49:34;6.30;;;5.03;;
67941;SDS011;54731;42.600;23.476;2023-06-14T11:52:00;6.85;;;6.20;;
67941;SDS011;54731;42.600;23.476;2023-06-14T11:54:26;5.87;;;5.17;;
67941;SDS011;54731;42.600;23.476;2023-06-14T11:56:51;5.90;;;5.40;;
67941;SDS011;54731;42.600;23.476;2023-06-14T11:59:16;5.07;;;4.40;;
67941;SDS011;54731;42.600;23.476;2023-06-14T12:01:42;6.05;;;5.45;;
67941;SDS011;54731;42.600;23.476;2023-06-14T12:04:08;5.60;;;5.00;;
67941;SDS011;54731;42.600;23.476;2023-06-14T12:06:33;6.07;;;5.22;;
67941;SDS011;54731;42.600;23.476;2023-06-14T12:08:59;6.03;;;4.57;;
67941;SDS011;54731;42.600;23.476;2023-06-14T12:11:28;5.67;;;4.97;;
67941;SDS011;54731;42.600;23.476;2023-06-14T12:13:57;5.63;;;5.00;;
67941;SDS011;54731;42.600;23.476;2023-06-14T12:16:22;5.57;;;5.07;;
67941;SDS011;54731;42.600;23.476;2023-06-14T12:18:55;6.13;;;5.30;;
67941;SDS011;54731;42.600;23.476;2023-06-14T12:21:22;6.57;;;5.13;;
67941;SDS011;54731;42.600;23.476;2023-06-14T12:23:48;7.60;;;5.38;;
67941;SDS011;54731;42.600;23.476;2023-06-14T12:26:18;6.83;;;5.27;;
67941;SDS011;54731;42.600;23.476;2023-06-14T12:28:44;7.70;;;5.50;;
67941;SDS011;54731;42.600;23.476;2023-06-14T12:31:11;6.57;;;4.63;;
67941;SDS011;54731;42.600;23.476;2023-06-14T12:33:38;9.18;;;5.88;;
67941;SDS011;54731;42.600;23.476;2023-06-14T12:36:09;7.65;;;5.88;;
67941;SDS011;54731;42.600;23.476;2023-06-14T12:38:35;6.93;;;5.43;;
67941;SDS011;54731;42.600;23.476;2023-06-14T12:41:01;7.95;;;5.82;;
67941;SDS011;54731;42.600;23.476;2023-06-14T12:43:26;8.13;;;5.93;;
67941;SDS011;54731;42.600;23.476;2023-06-14T12:45:52;6.63;;;5.85;;
67941;SDS011;54731;42.600;23.476;2023-06-14T12:48:17;9.23;;;6.63;;
67941;SDS011;54731;42.600;23.476;2023-06-14T12:50:43;9.07;;;6.07;;
67941;SDS011;54731;42.600;23.476;2023-06-14T12:53:08;6.87;;;6.17;;
67941;SDS011;54731;42.600;23.476;2023-06-14T12:55:33;7.00;;;6.20;;
67941;SDS011;54731;42.600;23.476;2023-06-14T12:57:59;7.63;;;6.27;;
67941;SDS011;54731;42.600;23.476;2023-06-14T13:00:24;11.93;;;7.32;;
67941;SDS011;54731;42.600;23.476;2023-06-14T13:02:49;13.20;;;6.50;;
67941;SDS011;54731;42.600;23.476;2023-06-14T13:05:15;9.00;;;6.90;;
67941;SDS011;54731;42.600;23.476;2023-06-14T13:07:40;13.13;;;7.63;;
67941;SDS011;54731;42.600;23.476;2023-06-14T13:10:05;7.97;;;7.17;;
67941;SDS011;54731;42.600;23.476;2023-06-14T13:12:31;8.37;;;7.23;;
67941;SDS011;54731;42.600;23.476;2023-06-14T13:14:56;9.63;;;7.37;;
67941;SDS011;54731;42.600;23.476;2023-06-14T13:17:22;9.88;;;6.90;;
67941;SDS011;54731;42.600;23.476;2023-06-14T13:19:47;13.57;;;8.00;;
67941;SDS011;54731;42.600;23.476;2023-06-14T13:22:12;10.43;;;7.30;;
67941;SDS011;54731;42.600;23.476;2023-06-14T13:24:37;10.20;;;7.50;;
67941;SDS011;54731;42.600;23.476;2023-06-14T13:27:03;11.40;;;7.67;;
67941;SDS011;54731;42.600;23.476;2023-06-14T13:29:28;11.73;;;8.53;;
67941;SDS011;54731;42.600;23.476;2023-06-14T13:31:54;9.80;;;8.50;;
67941;SDS011;54731;42.600;23.476;2023-06-14T13:34:19;12.97;;;8.23;;
67941;SDS011;54731;42.600;23.476;2023-06-14T13:36:44;10.02;;;7.65;;
67941;SDS011;54731;42.600;23.476;2023-06-14T13:39:10;8.63;;;7.30;;
67941;SDS011;54731;42.600;23.476;2023-06-14T13:41:35;10.20;;;7.53;;
67941;SDS011;54731;42.600;23.476;2023-06-14T13:44:00;9.17;;;6.23;;
67941;SDS011;54731;42.600;23.476;2023-06-14T13:46:26;8.30;;;6.80;;
67941;SDS011;54731;42.600;23.476;2023-06-14T13:48:52;8.30;;;6.77;;
67941;SDS011;54731;42.600;23.476;2023-06-14T13:51:17;9.83;;;7.10;;
67941;SDS011;54731;42.600;23.476;2023-06-14T13:53:45;10.77;;;7.50;;
67941;SDS011;54731;42.600;23.476;2023-06-14T13:56:11;10.93;;;7.00;;
67941;SDS011;54731;42.600;23.476;2023-06-14T13:58:37;9.20;;;7.33;;
67941;SDS011;54731;42.600;23.476;2023-06-14T14:01:02;11.52;;;7.47;;
67941;SDS011;54731;42.600;23.476;2023-06-14T14:03:28;12.93;;;7.97;;
67941;SDS011;54731;42.600;23.476;2023-06-14T14:05:53;11.17;;;7.97;;
67941;SDS011;54731;42.600;23.476;2023-06-14T14:08:18;12.23;;;7.60;;
67941;SDS011;54731;42.600;23.476;2023-06-14T14:10:44;10.20;;;8.40;;
67941;SDS011;54731;42.600;23.476;2023-06-14T14:13:09;9.50;;;7.85;;
67941;SDS011;54731;42.600;23.476;2023-06-14T14:15:34;10.70;;;8.17;;
67941;SDS011;54731;42.600;23.476;2023-06-14T14:18:00;11.40;;;7.90;;
67941;SDS011;54731;42.600;23.476;2023-06-14T14:20:25;13.83;;;8.57;;
67941;SDS011;54731;42.600;23.476;2023-06-14T14:22:50;10.27;;;8.30;;
67941;SDS011;54731;42.600;23.476;2023-06-14T14:25:16;11.77;;;8.57;;
67941;SDS011;54731;42.600;23.476;2023-06-14T14:27:41;10.83;;;8.77;;
67941;SDS011;54731;42.600;23.476;2023-06-14T14:30:06;10.35;;;8.05;;